Time;durP1;ratioP1;P1;durP2;ratioP2;P2;SDS_P1;SDS_P2;PMS_P1;PMS_P2;Temp;Humidity;BMP_temperature;BMP_pressure;BME280_temperature;BME280_humidity;BME280_pressure;Samples;Min_cycle;Max_cycle;Signal;HPM_P1;HPM_P2
2021/04/30 00:00:54;;;;;;;1.90;1.00;;;6.50;97.30;;;;;;5101567;28;20174;-65
2021/04/30 00:03:20;;;;;;;5.00;1.88;;;6.50;97.30;;;;;;5093937;28;20533;-66
2021/04/30 00:05:47;;;;;;;4.38;1.60;;;6.40;97.30;;;;;;5099652;28;20331;-65
2021/04/30 00:08:13;;;;;;;3.03;1.00;;;6.40;97.50;;;;;;5098206;28;20180;-64
2021/04/30 00:10:39;;;;;;;2.03;1.17;;;6.30;97.50;;;;;;5099163;28;20952;-65
2021/04/30 00:13:06;;;;;;;5.22;1.30;;;6.30;97.60;;;;;;5094218;28;20208;-66
2021/04/30 00:15:33;;;;;;;5.30;1.38;;;6.20;97.70;;;;;;5098270;28;20539;-66
2021/04/30 00:18:04;;;;;;;3.20;1.60;;;6.20;97.80;;;;;;5095404;28;20531;-65
2021/04/30 00:20:34;;;;;;;3.90;2.05;;;6.10;98.20;;;;;;5093460;28;20185;-65
2021/04/30 00:23:00;;;;;;;5.85;1.58;;;6.10;98.80;;;;;;5095749;28;20173;-65
2021/04/30 00:25:27;;;;;;;2.72;1.27;;;6.00;98.30;;;;;;5099603;28;20177;-66
2021/04/30 00:27:53;;;;;;;2.40;1.42;;;5.90;98.40;;;;;;5097132;28;20545;-65
2021/04/30 00:30:20;;;;;;;5.32;1.40;;;5.90;98.80;;;;;;5093315;28;20634;-66
2021/04/30 00:32:46;;;;;;;3.50;1.50;;;5.80;98.60;;;;;;5089643;28;20193;-64
2021/04/30 00:35:12;;;;;;;1.98;1.08;;;5.80;98.70;;;;;;5096522;28;20704;-66
2021/04/30 00:37:38;;;;;;;2.35;1.13;;;5.80;98.40;;;;;;5096807;28;20177;-66
2021/04/30 00:40:08;;;;;;;2.30;1.40;;;5.70;98.80;;;;;;5097112;28;20177;-65
2021/04/30 00:42:34;;;;;;;2.45;1.38;;;5.70;98.90;;;;;;5099132;28;20644;-65
2021/04/30 00:45:01;;;;;;;3.47;1.77;;;5.60;98.80;;;;;;5074053;28;20185;-65
2021/04/30 00:47:35;;;;;;;3.25;1.42;;;5.60;98.90;;;;;;5092093;28;20177;-65
2021/04/30 00:50:09;;;;;;;3.00;1.40;;;5.50;98.80;;;;;;5093761;28;20552;-65
2021/04/30 00:52:38;;;;;;;6.22;1.58;;;5.50;98.60;;;;;;5103018;28;20165;-65
2021/04/30 00:55:06;;;;;;;5.05;1.45;;;5.50;98.90;;;;;;5104152;28;20181;-66
2021/04/30 00:57:32;;;;;;;3.10;1.38;;;5.40;98.50;;;;;;5093882;27;20189;-66
2021/04/30 00:59:58;;;;;;;2.00;1.20;;;5.40;99.00;;;;;;5094246;28;20177;-66
2021/04/30 01:02:25;;;;;;;3.28;1.30;;;5.30;99.10;;;;;;5095858;28;20645;-66
2021/04/30 01:04:51;;;;;;;4.10;1.30;;;5.30;99.00;;;;;;5095191;28;20170;-67
2021/04/30 01:07:18;;;;;;;5.40;1.20;;;5.30;98.70;;;;;;5094939;28;20196;-66
2021/04/30 01:09:44;;;;;;;2.50;1.45;;;5.20;99.10;;;;;;5098137;28;20161;-66
2021/04/30 01:12:10;;;;;;;2.60;1.63;;;5.20;98.90;;;;;;5097057;28;20181;-65
2021/04/30 01:14:36;;;;;;;2.35;1.30;;;5.20;99.30;;;;;;5097314;28;20853;-66
2021/04/30 01:17:03;;;;;;;2.25;1.63;;;5.20;99.10;;;;;;5099521;28;20176;-66
2021/04/30 01:19:30;;;;;;;2.53;1.30;;;5.10;99.40;;;;;;5094000;28;20180;-65
2021/04/30 01:21:57;;;;;;;2.90;1.50;;;5.10;99.30;;;;;;5101608;28;20189;-66
2021/04/30 01:24:24;;;;;;;4.78;1.52;;;5.10;99.40;;;;;;5098408;28;20179;-65
2021/04/30 01:26:50;;;;;;;3.45;1.35;;;5.00;99.00;;;;;;5091063;28;20178;-65
2021/04/30 01:29:17;;;;;;;2.22;1.40;;;5.00;99.10;;;;;;5092536;28;20532;-66
2021/04/30 01:31:43;;;;;;;5.65;1.25;;;5.00;99.20;;;;;;5102527;28;20196;-65
2021/04/30 01:34:10;;;;;;;2.28;1.48;;;5.00;99.30;;;;;;5091458;28;20716;-65
2021/04/30 01:36:36;;;;;;;2.35;1.30;;;4.90;99.40;;;;;;5092611;28;20184;-66
2021/04/30 01:39:05;;;;;;;5.15;1.50;;;4.90;99.20;;;;;;5092133;28;20173;-65
2021/04/30 01:41:32;;;;;;;3.03;1.40;;;4.90;99.10;;;;;;5091296;28;20184;-65
2021/04/30 01:43:58;;;;;;;2.20;1.30;;;4.90;98.90;;;;;;5091318;28;20170;-64
2021/04/30 01:46:24;;;;;;;3.95;1.70;;;4.80;99.20;;;;;;5092273;28;20188;-65
2021/04/30 01:48:51;;;;;;;2.30;1.20;;;4.80;99.40;;;;;;5094457;28;20203;-66
2021/04/30 01:51:17;;;;;;;3.97;1.35;;;4.80;99.20;;;;;;5092012;28;20181;-65
2021/04/30 01:53:43;;;;;;;4.40;1.67;;;4.70;99.20;;;;;;5093303;28;20298;-65
2021/04/30 01:56:09;;;;;;;4.72;1.60;;;4.70;99.60;;;;;;5092044;28;20174;-66
2021/04/30 01:58:36;;;;;;;3.13;1.30;;;4.70;99.50;;;;;;5094214;28;20181;-66
2021/04/30 02:01:02;;;;;;;1.60;1.00;;;4.70;99.60;;;;;;5089837;28;20547;-65
2021/04/30 02:03:29;;;;;;;4.78;1.40;;;4.60;99.60;;;;;;5092084;28;20181;-64
2021/04/30 02:05:55;;;;;;;4.03;1.35;;;4.60;99.70;;;;;;5091650;28;20196;-65
2021/04/30 02:08:21;;;;;;;3.10;1.33;;;4.60;99.80;;;;;;5097916;28;20177;-66
2021/04/30 02:10:47;;;;;;;4.63;1.40;;;4.60;99.70;;;;;;5098504;28;20207;-66
2021/04/30 02:13:16;;;;;;;4.20;1.20;;;4.60;99.60;;;;;;5093252;28;20636;-64
2021/04/30 02:15:43;;;;;;;3.00;1.02;;;4.50;99.80;;;;;;5093838;28;20185;-64
2021/04/30 02:18:10;;;;;;;2.38;1.17;;;4.50;99.80;;;;;;5099619;28;20169;-66
2021/04/30 02:20:36;;;;;;;2.72;1.40;;;4.50;99.90;;;;;;5094929;28;20181;-66
2021/04/30 02:23:02;;;;;;;3.08;1.33;;;4.50;99.90;;;;;;5094763;28;20174;-65
2021/04/30 02:25:28;;;;;;;4.97;1.48;;;4.40;99.90;;;;;;5095305;28;20536;-64
2021/04/30 02:27:55;;;;;;;3.40;1.20;;;4.40;99.90;;;;;;5099456;28;20177;-65
2021/04/30 02:30:22;;;;;;;5.18;1.58;;;4.30;99.90;;;;;;5092810;28;20201;-65
2021/04/30 02:32:48;;;;;;;2.33;1.48;;;4.20;99.90;;;;;;5099413;28;20215;-65
2021/04/30 02:35:16;;;;;;;2.58;1.30;;;4.20;99.90;;;;;;5091275;28;20212;-64
2021/04/30 02:37:43;;;;;;;5.05;1.55;;;4.20;99.90;;;;;;5089204;28;20161;-65
2021/04/30 02:40:10;;;;;;;3.78;1.50;;;4.10;99.90;;;;;;5098424;28;20177;-65
2021/04/30 02:42:36;;;;;;;2.90;1.27;;;4.10;99.90;;;;;;5096522;28;20189;-65
2021/04/30 02:45:04;;;;;;;3.90;1.35;;;4.10;99.90;;;;;;5100303;28;20172;-65
2021/04/30 02:47:31;;;;;;;1.63;1.35;;;4.00;99.90;;;;;;5093805;28;20180;-65
2021/04/30 02:50:05;;;;;;;2.22;1.20;;;4.00;99.90;;;;;;5104560;28;20933;-65
2021/04/30 02:52:31;;;;;;;3.50;1.75;;;3.90;99.90;;;;;;5104762;28;20178;-64
2021/04/30 02:54:57;;;;;;;2.15;1.38;;;3.90;99.90;;;;;;5099075;28;20208;-64
2021/04/30 02:57:24;;;;;;;2.80;1.42;;;3.90;99.90;;;;;;5101270;28;20181;-63
2021/04/30 02:59:50;;;;;;;3.83;1.38;;;3.90;99.90;;;;;;5087904;28;20193;-65
2021/04/30 03:02:17;;;;;;;3.38;1.52;;;3.90;99.90;;;;;;5105007;28;20177;-64
2021/04/30 03:04:43;;;;;;;3.80;1.13;;;3.90;99.90;;;;;;5100658;28;20183;-66
2021/04/30 03:07:09;;;;;;;8.52;1.40;;;3.90;99.90;;;;;;5093915;28;20182;-65
2021/04/30 03:09:35;;;;;;;2.38;1.58;;;3.80;99.90;;;;;;5100483;28;20181;-65
2021/04/30 03:12:01;;;;;;;2.17;1.30;;;3.80;99.90;;;;;;5097252;28;20170;-64
2021/04/30 03:14:28;;;;;;;4.03;1.35;;;3.70;99.90;;;;;;5094746;28;20209;-65
2021/04/30 03:16:54;;;;;;;2.20;1.30;;;3.70;99.90;;;;;;5094677;28;20165;-65
2021/04/30 03:19:20;;;;;;;3.30;1.10;;;3.60;99.90;;;;;;5094626;28;20189;-64
2021/04/30 03:21:46;;;;;;;5.82;1.40;;;3.60;99.90;;;;;;5096614;28;20180;-65
2021/04/30 03:24:12;;;;;;;2.60;1.40;;;3.60;99.90;;;;;;5095956;28;20196;-65
2021/04/30 03:26:38;;;;;;;3.00;1.08;;;3.50;99.90;;;;;;5096676;28;20633;-65
2021/04/30 03:29:05;;;;;;;3.38;1.58;;;3.50;99.90;;;;;;5095337;28;20951;-65
2021/04/30 03:31:31;;;;;;;3.92;1.40;;;3.50;99.90;;;;;;5098264;28;20189;-65
2021/04/30 03:33:57;;;;;;;2.70;1.42;;;3.40;99.90;;;;;;5093652;28;20228;-65
2021/04/30 03:36:24;;;;;;;2.55;1.33;;;3.40;99.90;;;;;;5091342;28;20193;-65
2021/04/30 03:38:50;;;;;;;2.65;1.40;;;3.40;99.90;;;;;;5092879;28;20194;-63
2021/04/30 03:41:16;;;;;;;2.50;1.42;;;3.40;99.90;;;;;;5091411;28;20177;-65
2021/04/30 03:43:43;;;;;;;4.28;1.33;;;3.40;99.90;;;;;;5085465;28;20184;-65
2021/04/30 03:46:09;;;;;;;3.80;1.40;;;3.30;99.90;;;;;;5094895;28;20675;-65
2021/04/30 03:48:35;;;;;;;3.70;1.30;;;3.40;99.90;;;;;;5084485;28;20185;-63
2021/04/30 03:51:01;;;;;;;2.05;1.17;;;3.30;99.90;;;;;;5108646;28;20173;-64
2021/04/30 03:53:28;;;;;;;2.33;1.20;;;3.40;99.90;;;;;;5108625;28;20184;-64
2021/04/30 03:55:54;;;;;;;2.53;1.17;;;3.40;99.90;;;;;;5109704;28;20184;-65
2021/04/30 03:58:20;;;;;;;2.40;1.23;;;3.40;99.90;;;;;;5096494;28;20626;-65
2021/04/30 04:00:46;;;;;;;2.65;1.02;;;3.40;99.90;;;;;;5097081;28;20331;-65
2021/04/30 04:03:12;;;;;;;5.30;1.27;;;3.40;99.90;;;;;;5098465;28;20185;-65
2021/04/30 04:05:38;;;;;;;3.45;1.38;;;3.40;99.90;;;;;;5112560;28;20643;-64
2021/04/30 04:08:08;;;;;;;4.38;1.42;;;3.40;99.90;;;;;;5099714;28;20529;-64
2021/04/30 04:10:35;;;;;;;2.15;1.20;;;3.50;99.90;;;;;;5092821;28;20255;-65
2021/04/30 04:13:01;;;;;;;1.75;1.33;;;3.50;99.90;;;;;;5092574;28;20656;-65
2021/04/30 04:15:28;;;;;;;2.40;1.10;;;3.50;99.90;;;;;;5092334;28;20217;-64
2021/04/30 04:17:54;;;;;;;1.75;1.10;;;3.50;99.90;;;;;;5092763;28;20197;-64
2021/04/30 04:20:20;;;;;;;3.70;1.10;;;3.50;99.90;;;;;;5093930;28;20189;-65
2021/04/30 04:22:46;;;;;;;3.10;1.20;;;3.60;99.90;;;;;;5092872;28;20192;-65
2021/04/30 04:25:12;;;;;;;2.83;1.27;;;3.60;99.90;;;;;;5092422;28;20189;-64
2021/04/30 04:27:38;;;;;;;1.98;1.00;;;3.60;99.90;;;;;;5092424;28;20196;-64
2021/04/30 04:30:08;;;;;;;4.68;1.50;;;3.70;99.90;;;;;;5092671;28;20177;-68
2021/04/30 04:32:34;;;;;;;5.97;1.60;;;3.80;99.90;;;;;;5092647;28;20198;-65
2021/04/30 04:35:00;;;;;;;2.38;1.23;;;3.80;99.90;;;;;;5048268;28;764829;-65
2021/04/30 04:37:26;;;;;;;2.90;1.40;;;3.90;99.90;;;;;;5093830;28;20189;-65
2021/04/30 04:39:52;;;;;;;1.77;0.90;;;3.90;99.90;;;;;;5094389;28;20169;-65
2021/04/30 04:42:18;;;;;;;5.65;1.05;;;4.00;99.90;;;;;;5094589;28;20177;-66
2021/04/30 04:44:44;;;;;;;3.88;1.38;;;4.10;99.90;;;;;;5094406;28;20169;-65
2021/04/30 04:47:11;;;;;;;4.03;1.13;;;4.10;99.90;;;;;;5095184;28;20180;-66
2021/04/30 04:49:37;;;;;;;11.07;1.40;;;4.10;99.90;;;;;;5094166;28;20535;-65
2021/04/30 04:52:03;;;;;;;4.25;1.55;;;4.20;99.90;;;;;;5093741;28;20202;-66
2021/04/30 04:54:31;;;;;;;72.97;3.78;;;4.20;99.90;;;;;;5093833;28;20217;-65
2021/04/30 04:56:57;;;;;;;3.65;1.10;;;4.30;99.90;;;;;;5093676;28;20166;-65
2021/04/30 04:59:23;;;;;;;1.98;0.90;;;4.40;99.70;;;;;;5093888;28;20173;-66
2021/04/30 05:01:50;;;;;;;2.55;1.20;;;4.40;99.80;;;;;;5091366;28;20172;-65
2021/04/30 05:04:16;;;;;;;2.83;1.50;;;4.50;99.60;;;;;;5093817;28;20198;-64
2021/04/30 05:06:42;;;;;;;3.20;0.75;;;4.60;99.50;;;;;;5093705;28;20236;-65
2021/04/30 05:09:08;;;;;;;17.60;1.40;;;4.60;99.50;;;;;;5093436;28;20184;-65
2021/04/30 05:11:34;;;;;;;2.60;1.10;;;4.70;99.30;;;;;;5093612;28;20173;-65
2021/04/30 05:14:00;;;;;;;3.63;1.23;;;4.80;98.90;;;;;;5093183;28;20217;-65
2021/04/30 05:16:26;;;;;;;3.42;0.75;;;4.90;99.00;;;;;;5093065;28;20189;-65
2021/04/30 05:18:52;;;;;;;3.67;1.30;;;5.00;98.70;;;;;;5093149;28;20185;-65
2021/04/30 05:21:19;;;;;;;3.88;1.00;;;5.00;98.50;;;;;;5093482;28;20185;-66
2021/04/30 05:23:45;;;;;;;3.50;0.63;;;5.10;98.50;;;;;;5093084;28;20185;-66
2021/04/30 05:26:11;;;;;;;15.75;1.77;;;5.10;98.10;;;;;;5093150;28;20563;-65
2021/04/30 05:28:37;;;;;;;2.03;0.90;;;5.20;98.40;;;;;;5091795;28;20180;-64
2021/04/30 05:31:04;;;;;;;1.30;0.88;;;5.20;97.80;;;;;;5091878;28;20629;-65
2021/04/30 05:33:30;;;;;;;2.38;0.60;;;5.30;97.70;;;;;;5091552;28;20193;-66
2021/04/30 05:35:56;;;;;;;5.35;1.20;;;5.40;97.90;;;;;;5089882;28;20705;-65
2021/04/30 05:38:22;;;;;;;7.05;1.20;;;5.40;97.70;;;;;;5091813;28;20173;-67
2021/04/30 05:40:48;;;;;;;1.73;0.85;;;5.50;97.40;;;;;;5069170;28;20200;-65
2021/04/30 05:43:15;;;;;;;3.80;0.90;;;5.60;96.70;;;;;;5089694;28;20185;-65
2021/04/30 05:45:44;;;;;;;1.05;0.65;;;5.70;96.90;;;;;;5092973;28;20201;-65
2021/04/30 05:48:10;;;;;;;1.98;1.08;;;5.70;97.20;;;;;;5091335;28;20196;-66
2021/04/30 05:50:36;;;;;;;9.45;1.15;;;5.80;96.30;;;;;;5092781;28;20188;-66
2021/04/30 05:53:02;;;;;;;5.88;0.90;;;5.90;96.50;;;;;;5088609;28;20532;-66
2021/04/30 05:55:29;;;;;;;7.80;1.13;;;6.00;95.70;;;;;;5089312;28;20204;-65
2021/04/30 05:57:55;;;;;;;1.70;0.93;;;6.00;95.80;;;;;;5091990;28;20173;-66
2021/04/30 06:00:21;;;;;;;6.68;0.90;;;6.10;96.00;;;;;;5091682;28;20177;-63
2021/04/30 06:02:47;;;;;;;3.13;1.10;;;6.20;95.60;;;;;;5091313;28;20546;-65
2021/04/30 06:05:14;;;;;;;1.77;1.00;;;6.30;95.50;;;;;;5091685;28;20204;-66
2021/04/30 06:07:40;;;;;;;1.23;0.90;;;6.50;95.40;;;;;;5091104;28;20169;-66
2021/04/30 06:10:07;;;;;;;2.05;1.00;;;6.50;94.20;;;;;;5089944;28;20200;-65
2021/04/30 06:12:33;;;;;;;1.15;0.70;;;6.50;94.10;;;;;;5089991;28;20184;-65
2021/04/30 06:15:00;;;;;;;2.47;0.80;;;6.60;94.90;;;;;;5091323;28;20213;-66
2021/04/30 06:17:26;;;;;;;4.28;0.95;;;6.70;94.20;;;;;;5091581;28;20173;-66
2021/04/30 06:19:52;;;;;;;3.45;0.70;;;6.90;94.10;;;;;;5091683;28;20177;-66
2021/04/30 06:22:18;;;;;;;1.63;0.85;;;7.00;93.60;;;;;;5089981;28;20177;-66
2021/04/30 06:24:45;;;;;;;1.58;0.80;;;7.10;93.00;;;;;;5091436;28;20181;-65
2021/04/30 06:27:11;;;;;;;2.72;0.68;;;7.20;92.70;;;;;;5090335;28;20192;-65
2021/04/30 06:29:37;;;;;;;1.75;0.82;;;7.30;92.80;;;;;;5091796;28;20256;-66
2021/04/30 06:32:03;;;;;;;3.42;0.82;;;7.40;91.40;;;;;;5090784;28;20201;-65
2021/04/30 06:34:29;;;;;;;1.98;0.70;;;7.60;91.70;;;;;;5090614;28;20232;-66
2021/04/30 06:36:55;;;;;;;1.20;0.80;;;7.80;91.90;;;;;;5091562;28;20181;-67
2021/04/30 06:39:22;;;;;;;1.50;0.70;;;7.90;90.90;;;;;;5071388;28;20186;-67
2021/04/30 06:41:49;;;;;;;1.20;0.60;;;7.90;88.00;;;;;;5091475;28;20174;-66
2021/04/30 06:44:15;;;;;;;1.35;0.70;;;7.90;87.80;;;;;;5090656;28;20642;-64
2021/04/30 06:46:41;;;;;;;6.45;0.68;;;8.00;88.80;;;;;;5089897;28;20193;-65
2021/04/30 06:49:08;;;;;;;35.05;2.28;;;8.20;86.90;;;;;;5090880;28;20177;-65
2021/04/30 06:51:34;;;;;;;9.68;1.08;;;8.30;85.40;;;;;;5091618;28;20181;-66
2021/04/30 06:54:01;;;;;;;1.88;0.85;;;8.40;84.30;;;;;;5089136;28;20263;-66
2021/04/30 06:56:30;;;;;;;1.60;0.60;;;8.50;83.20;;;;;;5083931;28;20193;-66
2021/04/30 06:58:57;;;;;;;1.48;0.70;;;8.60;81.90;;;;;;5092741;28;20188;-65
2021/04/30 07:01:23;;;;;;;1.42;0.65;;;8.80;82.60;;;;;;5099313;28;20166;-66
2021/04/30 07:03:50;;;;;;;2.83;0.63;;;8.90;79.30;;;;;;5095709;28;20197;-65
2021/04/30 07:06:20;;;;;;;2.92;0.70;;;8.90;78.10;;;;;;5099102;28;20169;-65
2021/04/30 07:08:47;;;;;;;1.25;0.45;;;9.00;78.40;;;;;;5097266;28;20536;-66
2021/04/30 07:11:13;;;;;;;1.95;0.65;;;9.20;76.90;;;;;;5102177;28;20165;-65
2021/04/30 07:13:39;;;;;;;1.50;0.60;;;9.20;76.10;;;;;;5099818;28;20531;-67
2021/04/30 07:16:06;;;;;;;0.90;0.70;;;9.30;76.60;;;;;;5090173;28;20213;-65
2021/04/30 07:18:32;;;;;;;8.90;0.90;;;9.40;74.90;;;;;;5090053;28;20178;-66
2021/04/30 07:20:58;;;;;;;1.75;0.70;;;9.60;75.40;;;;;;5089995;28;20176;-65
2021/04/30 07:23:24;;;;;;;2.08;0.57;;;9.60;73.20;;;;;;5090801;28;20173;-66
2021/04/30 07:25:51;;;;;;;1.25;0.52;;;9.80;76.60;;;;;;5095509;28;20182;-66
2021/04/30 07:28:17;;;;;;;3.90;0.70;;;10.00;73.90;;;;;;5102577;28;20169;-65
2021/04/30 07:30:43;;;;;;;6.43;1.08;;;10.10;71.20;;;;;;5103327;28;20629;-66
2021/04/30 07:33:11;;;;;;;5.63;0.77;;;10.10;71.30;;;;;;5104530;28;20574;-66
2021/04/30 07:35:40;;;;;;;1.20;0.70;;;10.20;69.90;;;;;;5099663;28;20584;-65
2021/04/30 07:38:07;;;;;;;1.45;0.60;;;10.40;71.30;;;;;;5098982;28;20180;-66
2021/04/30 07:40:33;;;;;;;5.60;0.80;;;10.50;69.80;;;;;;5100860;28;20178;-65
2021/04/30 07:42:59;;;;;;;1.15;0.68;;;10.60;68.90;;;;;;5102130;28;20186;-66
2021/04/30 07:45:26;;;;;;;0.93;0.63;;;10.70;66.30;;;;;;5099604;28;20165;-68
2021/04/30 07:47:52;;;;;;;5.28;0.90;;;10.80;64.00;;;;;;5101509;28;20173;-65
2021/04/30 07:50:18;;;;;;;0.85;0.70;;;11.00;64.20;;;;;;5099545;28;20172;-66
2021/04/30 07:52:44;;;;;;;1.38;0.80;;;11.50;62.00;;;;;;5103416;28;20182;-67
2021/04/30 07:55:11;;;;;;;1.15;0.73;;;12.00;60.40;;;;;;5092712;28;20216;-66
2021/04/30 07:57:38;;;;;;;2.08;1.00;;;12.50;60.40;;;;;;5092475;28;20634;-67
2021/04/30 08:00:05;;;;;;;1.00;0.80;;;13.10;61.10;;;;;;5093429;28;20543;-67
2021/04/30 08:02:32;;;;;;;2.70;0.70;;;13.40;59.60;;;;;;5091055;28;20201;-66
2021/04/30 08:04:58;;;;;;;4.00;0.63;;;13.80;57.80;;;;;;5091819;28;20185;-68
2021/04/30 08:07:24;;;;;;;5.53;1.20;;;14.40;58.30;;;;;;5091496;28;20541;-67
2021/04/30 08:09:53;;;;;;;1.58;0.93;;;14.60;54.90;;;;;;5089622;28;20542;-67
2021/04/30 08:12:19;;;;;;;3.28;0.80;;;15.20;53.00;;;;;;5092218;28;20852;-68
2021/04/30 08:14:46;;;;;;;1.95;0.80;;;15.00;54.00;;;;;;5090487;28;20232;-66
2021/04/30 08:17:12;;;;;;;3.78;0.80;;;15.40;53.00;;;;;;5090360;28;20247;-68
2021/04/30 08:19:38;;;;;;;4.05;0.95;;;15.70;51.40;;;;;;5092024;28;20188;-68
2021/04/30 08:22:04;;;;;;;2.83;0.80;;;15.50;50.10;;;;;;5093862;28;20196;-67
2021/04/30 08:24:30;;;;;;;2.88;0.80;;;15.50;51.00;;;;;;5094194;28;20562;-66
2021/04/30 08:26:58;;;;;;;1.77;0.75;;;15.30;51.50;;;;;;5093759;28;20188;-66
2021/04/30 08:29:24;;;;;;;2.78;1.08;;;15.50;49.90;;;;;;5093840;28;20649;-67
2021/04/30 08:31:50;;;;;;;3.17;0.82;;;15.60;49.80;;;;;;5093322;28;20669;-68
2021/04/30 08:34:16;;;;;;;2.28;0.80;;;16.00;51.00;;;;;;5092754;28;20209;-69
2021/04/30 08:36:43;;;;;;;2.13;0.98;;;16.30;49.00;;;;;;5092718;28;20187;-66
2021/04/30 08:39:10;;;;;;;1.67;0.80;;;16.40;49.20;;;;;;5093781;28;20618;-68
2021/04/30 08:41:36;;;;;;;3.53;0.90;;;16.30;49.60;;;;;;5093615;28;20548;-67
2021/04/30 08:44:04;;;;;;;2.45;0.80;;;16.90;47.40;;;;;;5093576;28;20171;-69
2021/04/30 08:46:30;;;;;;;5.28;0.93;;;16.90;48.30;;;;;;5093988;28;20176;-68
2021/04/30 08:49:04;;;;;;;2.90;0.90;;;17.00;47.30;;;;;;5093042;28;20185;-68
2021/04/30 08:51:30;;;;;;;2.75;0.90;;;17.30;46.10;;;;;;5092246;28;20188;-68
2021/04/30 08:53:56;;;;;;;4.95;0.75;;;17.20;45.70;;;;;;5093113;28;20169;-67
2021/04/30 08:56:23;;;;;;;3.75;0.85;;;17.40;46.30;;;;;;5093092;28;20674;-68
2021/04/30 08:58:49;;;;;;;2.63;0.70;;;17.80;44.70;;;;;;5093507;28;20630;-69
2021/04/30 09:01:15;;;;;;;6.85;0.73;;;18.20;45.30;;;;;;5075385;28;20173;-68
2021/04/30 09:03:41;;;;;;;5.18;1.10;;;18.40;42.90;;;;;;5093785;28;20181;-68
2021/04/30 09:06:07;;;;;;;1.77;0.80;;;18.50;41.80;;;;;;5084924;28;20180;-70
2021/04/30 09:08:47;;;;;;;0.60;0.60;;;18.00;40.30;;;;;;5091917;28;20169;-69
2021/04/30 09:11:32;;;;;;;1.85;0.73;;;18.00;41.70;;;;;;5092121;28;20177;-68
2021/04/30 09:14:21;;;;;;;2.28;0.50;;;18.00;42.80;;;;;;5092742;28;20184;-70
2021/04/30 09:17:09;;;;;;;10.45;0.70;;;18.80;43.70;;;;;;5084844;28;20193;-70
2021/04/30 09:19:53;;;;;;;2.85;0.60;;;19.40;43.20;;;;;;5098677;28;20169;-70
2021/04/30 09:22:21;;;;;;;3.42;0.70;;;19.30;40.70;;;;;;5091721;28;20169;-69
2021/04/30 09:24:50;;;;;;;8.38;0.90;;;19.60;40.10;;;;;;5093514;28;20200;-70
2021/04/30 09:27:32;;;;;;;1.73;0.50;;;19.20;39.50;;;;;;5097907;28;20180;-70
2021/04/30 09:30:26;;;;;;;2.45;0.60;;;19.70;39.30;;;;;;5098175;28;20195;-70
2021/04/30 09:33:21;;;;;;;3.00;0.70;;;19.60;38.90;;;;;;5099600;28;20196;-70
2021/04/30 09:35:54;;;;;;;1.98;0.80;;;19.00;40.10;;;;;;5098757;28;20221;-71
2021/04/30 09:38:24;;;;;;;1.83;0.70;;;19.40;40.30;;;;;;5097482;28;20169;-70
2021/04/30 09:40:52;;;;;;;2.60;0.77;;;19.90;38.20;;;;;;5099676;28;20177;-70
2021/04/30 09:43:18;;;;;;;4.03;0.73;;;19.90;38.90;;;;;;5100675;28;20520;-70
2021/04/30 09:45:45;;;;;;;2.10;0.70;;;19.80;39.80;;;;;;5102750;28;20173;-69
2021/04/30 09:48:12;;;;;;;1.38;0.80;;;19.70;37.90;;;;;;5097299;28;20192;-69
2021/04/30 09:50:40;;;;;;;2.38;0.63;;;18.90;39.10;;;;;;5097167;28;20192;-70
2021/04/30 09:53:10;;;;;;;0.70;0.60;;;19.10;38.40;;;;;;5096678;28;20169;-69
2021/04/30 09:55:41;;;;;;;0.88;0.60;;;19.30;37.40;;;;;;5098038;28;20208;-69
2021/04/30 09:58:13;;;;;;;3.85;0.70;;;19.50;40.30;;;;;;5100075;28;20172;-70
2021/04/30 10:00:40;;;;;;;1.35;0.73;;;20.00;38.50;;;;;;5098707;28;20173;-72
2021/04/30 10:03:13;;;;;;;3.40;0.70;;;20.20;38.10;;;;;;5102320;28;20173;-70
2021/04/30 10:05:57;;;;;;;1.23;0.70;;;20.30;38.80;;;;;;5100291;28;20640;-70
2021/04/30 10:08:23;;;;;;;4.75;0.93;;;19.80;36.40;;;;;;5098318;28;20172;-69
2021/04/30 10:10:49;;;;;;;2.88;0.85;;;19.50;37.30;;;;;;5083323;28;20169;-70
2021/04/30 10:13:15;;;;;;;2.33;0.60;;;18.80;38.50;;;;;;5098866;28;20170;-69
2021/04/30 10:15:42;;;;;;;2.58;0.80;;;18.70;36.10;;;;;;5098208;28;20212;-70
2021/04/30 10:18:08;;;;;;;1.60;0.60;;;17.90;35.60;;;;;;5094063;28;20169;-70
2021/04/30 10:20:34;;;;;;;1.60;0.73;;;16.70;37.50;;;;;;5093511;28;20189;-70
2021/04/30 10:23:01;;;;;;;5.53;0.88;;;16.80;40.60;;;;;;5097355;28;20543;-68
2021/04/30 10:25:27;;;;;;;3.53;0.85;;;17.00;38.70;;;;;;5099351;28;20196;-68
2021/04/30 10:27:54;;;;;;;3.92;0.60;;;17.30;38.00;;;;;;5082229;28;20185;-70
2021/04/30 10:30:50;;;;;;;1.60;0.82;;;17.80;37.10;;;;;;5094846;28;20169;-69
2021/04/30 10:33:23;;;;;;;4.20;0.73;;;18.30;36.00;;;;;;5083619;28;20205;-69
2021/04/30 10:35:51;;;;;;;1.67;0.55;;;18.20;34.50;;;;;;5073819;28;20216;-69
2021/04/30 10:38:20;;;;;;;0.98;0.63;;;18.60;35.50;;;;;;5091701;28;20181;-68
2021/04/30 10:41:04;;;;;;;3.60;0.73;;;18.90;35.80;;;;;;5090630;28;20532;-69
2021/04/30 10:43:31;;;;;;;0.50;0.40;;;19.10;35.20;;;;;;5090823;28;20632;-69
2021/04/30 10:45:58;;;;;;;1.23;0.70;;;18.70;34.30;;;;;;5093679;28;20177;-68
2021/04/30 10:48:25;;;;;;;1.75;0.60;;;19.10;34.30;;;;;;5090043;28;20182;-69
2021/04/30 10:50:52;;;;;;;1.52;0.50;;;19.40;36.40;;;;;;5091225;28;20185;-69
2021/04/30 10:53:28;;;;;;;2.05;0.60;;;20.90;36.10;;;;;;5089898;28;20184;-69
2021/04/30 10:55:54;;;;;;;2.95;0.40;;;21.40;30.80;;;;;;5090648;28;20205;-70
2021/04/30 10:58:32;;;;;;;1.02;0.50;;;21.70;32.80;;;;;;5090480;28;20222;-70
2021/04/30 11:01:10;;;;;;;0.93;0.55;;;22.00;32.60;;;;;;5092451;28;20176;-69
2021/04/30 11:03:36;;;;;;;0.50;0.40;;;21.10;29.40;;;;;;5079154;28;20169;-69
2021/04/30 11:06:05;;;;;;;1.95;0.40;;;22.00;29.50;;;;;;5094310;28;20196;-70
2021/04/30 11:08:55;;;;;;;1.50;0.40;;;22.10;30.00;;;;;;5093344;28;20177;-70
2021/04/30 11:11:31;;;;;;;1.02;0.47;;;23.00;30.00;;;;;;5095402;28;20177;-69
2021/04/30 11:14:20;;;;;;;0.40;0.40;;;22.20;28.20;;;;;;5095332;28;20637;-69
2021/04/30 11:16:46;;;;;;;3.42;0.93;;;21.60;29.20;;;;;;5090028;28;20201;-70
2021/04/30 11:19:12;;;;;;;2.10;0.75;;;21.40;33.60;;;;;;5096847;28;20178;-69
2021/04/30 11:21:51;;;;;;;1.35;0.80;;;19.60;32.00;;;;;;5103186;28;20172;-69
2021/04/30 11:24:30;;;;;;;2.42;0.80;;;17.90;34.50;;;;;;5099885;28;20175;-70
2021/04/30 11:27:17;;;;;;;11.50;1.38;;;16.20;36.80;;;;;;5102041;28;20180;-68
2021/04/30 11:29:43;;;;;;;0.90;0.65;;;15.60;39.50;;;;;;5102619;28;20184;-68
2021/04/30 11:32:26;;;;;;;14.93;1.20;;;15.10;39.20;;;;;;5100173;28;20204;-68
2021/04/30 11:34:59;;;;;;;2.95;1.08;;;14.40;40.10;;;;;;5098777;28;20212;-69
2021/04/30 11:37:27;;;;;;;3.35;0.95;;;14.00;41.30;;;;;;5092818;28;20305;-70
2021/04/30 11:39:54;;;;;;;2.45;0.82;;;14.10;41.50;;;;;;5102131;28;20173;-69
2021/04/30 11:42:20;;;;;;;2.60;0.77;;;14.10;41.30;;;;;;5100718;28;20169;-69
2021/04/30 11:44:46;;;;;;;1.58;0.85;;;14.40;40.20;;;;;;5093111;28;20173;-69
2021/04/30 11:47:15;;;;;;;9.10;0.90;;;14.60;40.50;;;;;;5092481;28;20672;-70
2021/04/30 11:49:41;;;;;;;1.20;0.75;;;14.90;40.40;;;;;;5095581;28;20680;-69
2021/04/30 11:52:11;;;;;;;2.67;0.77;;;14.80;38.70;;;;;;5096001;28;20181;-70
2021/04/30 11:54:38;;;;;;;1.67;0.70;;;14.80;40.00;;;;;;5088500;28;20173;-68
2021/04/30 11:57:09;;;;;;;2.08;0.95;;;14.70;40.20;;;;;;5091899;28;20205;-69
2021/04/30 11:59:37;;;;;;;2.88;0.93;;;14.90;39.10;;;;;;5099810;28;20172;-69
2021/04/30 12:02:04;;;;;;;1.30;0.75;;;14.90;39.30;;;;;;5098709;28;20176;-69
2021/04/30 12:04:50;;;;;;;1.13;0.80;;;15.80;40.70;;;;;;5097452;28;20164;-69
2021/04/30 12:07:17;;;;;;;1.75;0.90;;;16.30;38.60;;;;;;5098065;28;20168;-67
2021/04/30 12:09:43;;;;;;;4.60;0.80;;;16.60;37.20;;;;;;5093261;28;20192;-68
2021/04/30 12:12:23;;;;;;;4.13;0.80;;;17.10;37.40;;;;;;5093790;28;20545;-69
2021/04/30 12:14:57;;;;;;;1.92;1.00;;;17.50;38.20;;;;;;5093746;28;20200;-68
2021/04/30 12:17:25;;;;;;;1.27;0.68;;;17.50;35.50;;;;;;5093922;28;20183;-68
2021/04/30 12:20:13;;;;;;;1.30;0.70;;;16.70;35.00;;;;;;5091865;28;20188;-68
2021/04/30 12:22:46;;;;;;;3.08;0.60;;;16.70;35.50;;;;;;5087535;28;20169;-68
2021/04/30 12:25:30;;;;;;;8.00;0.90;;;16.80;37.70;;;;;;5093969;28;20177;-68
2021/04/30 12:28:30;;;;;;;1.10;0.88;;;16.80;38.50;;;;;;5086228;28;20176;-68
2021/04/30 12:30:58;;;;;;;1.17;0.77;;;15.50;37.90;;;;;;5092219;28;20192;-68
2021/04/30 12:33:46;;;;;;;5.03;1.00;;;14.50;39.60;;;;;;5092697;28;20169;-68
2021/04/30 12:36:24;;;;;;;4.15;1.13;;;14.30;41.70;;;;;;5094960;28;20211;-68
2021/04/30 12:38:54;;;;;;;3.17;1.45;;;14.20;42.00;;;;;;5098240;28;20165;-68
2021/04/30 12:41:23;;;;;;;1.20;0.80;;;14.70;42.30;;;;;;5091740;28;20177;-69
2021/04/30 12:43:50;;;;;;;2.15;0.90;;;14.80;42.20;;;;;;5093478;28;20630;-67
2021/04/30 12:46:22;;;;;;;2.83;0.90;;;15.20;41.10;;;;;;5093641;28;20189;-69
2021/04/30 12:48:55;;;;;;;1.80;1.15;;;15.70;41.50;;;;;;5092807;28;20192;-69
2021/04/30 12:51:29;;;;;;;3.22;1.10;;;15.80;41.10;;;;;;5072426;28;20182;-69
2021/04/30 12:53:56;;;;;;;1.58;0.90;;;16.10;40.40;;;;;;5091952;28;20169;-69
2021/04/30 12:56:32;;;;;;;1.55;0.98;;;15.90;39.30;;;;;;5093235;28;20201;-69
2021/04/30 12:59:08;;;;;;;3.08;0.80;;;15.30;39.50;;;;;;5092818;28;20548;-69